createdAt,value
2023-01-17T00:01:31.131Z,99.90
2023-01-17T00:04:16.534Z,99.90
2023-01-17T00:07:01.874Z,99.90
2023-01-17T00:09:47.196Z,99.90
2023-01-17T00:12:13.875Z,99.90
2023-01-17T00:14:40.685Z,99.90
2023-01-17T00:17:07.353Z,99.90
2023-01-17T00:19:52.629Z,99.90
2023-01-17T00:22:41.913Z,99.90
2023-01-17T00:25:45.617Z,99.90
2023-01-17T00:28:12.269Z,99.90
2023-01-17T00:30:38.940Z,99.90
2023-01-17T00:33:05.912Z,99.90
2023-01-17T00:35:33.199Z,99.90
2023-01-17T00:38:05.941Z,99.90
2023-01-17T00:40:37.746Z,99.90
2023-01-17T00:43:24.560Z,99.90
2023-01-17T00:46:10.771Z,99.90
2023-01-17T00:48:57.202Z,99.90
2023-01-17T00:51:43.302Z,99.90
2023-01-17T00:54:28.675Z,99.90
2023-01-17T00:57:14.704Z,99.90
2023-01-17T00:59:59.967Z,99.90
2023-01-17T01:02:47.035Z,99.90
2023-01-17T01:05:33.650Z,99.90
2023-01-17T01:08:19.904Z,99.90
2023-01-17T01:11:06.883Z,99.90
2023-01-17T01:13:53.106Z,99.90
2023-01-17T01:16:38.673Z,99.90
2023-01-17T01:19:24.686Z,99.90
2023-01-17T01:22:10.134Z,99.90
2023-01-17T01:24:55.559Z,99.90
2023-01-17T01:27:41.023Z,99.90
2023-01-17T01:30:27.092Z,99.90
2023-01-17T01:33:12.402Z,99.90
2023-01-17T01:35:39.188Z,99.90
2023-01-17T01:38:06.080Z,99.90
2023-01-17T01:40:32.837Z,99.90
2023-01-17T01:43:00.396Z,99.90
2023-01-17T01:45:31.434Z,99.90
2023-01-17T01:48:21.291Z,99.90
2023-01-17T01:50:50.006Z,99.90
2023-01-17T01:53:19.374Z,99.90
2023-01-17T01:55:49.520Z,99.90
2023-01-17T01:58:24.252Z,99.90
2023-01-17T02:00:51.807Z,99.90
2023-01-17T02:03:27.267Z,99.90
2023-01-17T02:05:54.150Z,99.90
2023-01-17T02:08:24.014Z,99.90
2023-01-17T02:10:51.261Z,99.90
2023-01-17T02:13:20.709Z,99.90
2023-01-17T02:15:57.826Z,99.90
2023-01-17T02:18:55.131Z,99.90
2023-01-17T02:21:41.254Z,99.90
2023-01-17T02:24:29.807Z,99.90
2023-01-17T02:27:22.417Z,99.90
2023-01-17T02:30:26.629Z,99.90
2023-01-17T02:33:02.975Z,99.90
2023-01-17T02:35:48.196Z,99.90
2023-01-17T02:38:27.115Z,99.90
2023-01-17T02:41:01.523Z,99.90
2023-01-17T02:43:28.487Z,99.90
2023-01-17T02:45:55.266Z,99.90
2023-01-17T02:48:28.069Z,99.90
2023-01-17T02:51:22.619Z,99.90
2023-01-17T02:54:16.673Z,99.90
2023-01-17T02:57:21.605Z,99.90
2023-01-17T03:00:04.336Z,99.90
2023-01-17T03:02:48.816Z,99.90
2023-01-17T03:05:36.621Z,99.90
2023-01-17T03:08:05.238Z,99.90
2023-01-17T03:10:33.994Z,99.90
2023-01-17T03:13:05.077Z,99.90
2023-01-17T03:15:31.995Z,99.90
2023-01-17T03:18:06.772Z,99.90
2023-01-17T03:20:33.498Z,99.90
2023-01-17T03:23:00.218Z,99.90
2023-01-17T03:25:27.333Z,99.90
2023-01-17T03:27:54.017Z,99.90
2023-01-17T03:30:23.028Z,99.90
2023-01-17T03:32:50.215Z,99.90
2023-01-17T03:35:17.006Z,99.90
2023-01-17T03:37:43.751Z,99.90
2023-01-17T03:40:10.964Z,99.90
2023-01-17T03:42:37.674Z,99.90
2023-01-17T03:45:04.775Z,99.90
2023-01-17T03:47:31.469Z,99.90
2023-01-17T03:49:58.170Z,99.90
2023-01-17T03:52:24.877Z,99.90
2023-01-17T03:54:51.575Z,99.90
2023-01-17T03:57:18.422Z,99.90
2023-01-17T03:59:46.114Z,99.90
2023-01-17T04:02:12.994Z,99.90
2023-01-17T04:04:39.745Z,99.90
2023-01-17T04:07:06.451Z,99.90
2023-01-17T04:09:34.605Z,99.90
2023-01-17T04:12:02.464Z,99.90
2023-01-17T04:14:29.296Z,99.90
2023-01-17T04:16:56.327Z,99.90
2023-01-17T04:19:23.307Z,99.90
2023-01-17T04:21:50.094Z,99.90
2023-01-17T04:24:20.164Z,99.90
2023-01-17T04:26:46.991Z,99.90
2023-01-17T04:29:13.715Z,99.90
2023-01-17T04:31:40.487Z,99.90
2023-01-17T04:34:07.230Z,99.90
2023-01-17T04:36:33.921Z,99.90
2023-01-17T04:39:00.691Z,99.90
2023-01-17T04:41:27.456Z,99.90
2023-01-17T04:43:54.203Z,99.90
2023-01-17T04:46:21.206Z,99.90
2023-01-17T04:48:48.008Z,99.90
2023-01-17T04:51:14.755Z,99.90
2023-01-17T04:53:41.575Z,99.90
2023-01-17T04:56:08.396Z,99.90
2023-01-17T04:58:35.467Z,99.90
2023-01-17T05:01:07.300Z,99.90
2023-01-17T05:03:35.036Z,99.90
2023-01-17T05:06:02.079Z,99.90
2023-01-17T05:08:28.933Z,99.90
2023-01-17T05:10:55.606Z,99.90
2023-01-17T05:13:22.284Z,99.90
2023-01-17T05:15:49.224Z,99.90
2023-01-17T05:18:18.058Z,99.90
2023-01-17T05:20:45.272Z,99.90
2023-01-17T05:23:12.064Z,99.90
2023-01-17T05:25:44.153Z,99.90
2023-01-17T05:28:14.321Z,99.90
2023-01-17T05:30:41.424Z,99.90
2023-01-17T05:33:10.168Z,99.90
2023-01-17T05:35:37.022Z,99.90
2023-01-17T05:38:03.982Z,99.90
2023-01-17T05:40:33.020Z,99.90
2023-01-17T05:43:00.950Z,99.90
2023-01-17T05:45:29.686Z,99.90
2023-01-17T05:47:58.403Z,99.90
2023-01-17T05:50:33.437Z,99.90
2023-01-17T05:53:06.023Z,99.90
2023-01-17T05:55:34.281Z,99.90
2023-01-17T05:58:02.302Z,99.90
2023-01-17T06:00:30.012Z,99.90
2023-01-17T06:02:58.535Z,99.90
2023-01-17T06:05:26.227Z,99.90
2023-01-17T06:07:53.626Z,99.90
2023-01-17T06:10:22.249Z,99.90
2023-01-17T06:12:49.206Z,99.90
2023-01-17T06:15:18.096Z,99.90
2023-01-17T06:17:44.799Z,99.90
2023-01-17T06:20:12.812Z,99.90
2023-01-17T06:22:39.687Z,99.90
2023-01-17T06:25:07.068Z,99.90
2023-01-17T06:27:33.828Z,99.90
2023-01-17T06:30:00.526Z,99.90
2023-01-17T06:32:27.273Z,99.90
2023-01-17T06:34:54.023Z,99.90
2023-01-17T06:37:20.820Z,99.90
2023-01-17T06:39:47.745Z,99.90
2023-01-17T06:42:14.552Z,99.90
2023-01-17T06:44:41.219Z,99.90
2023-01-17T06:47:07.933Z,99.90
2023-01-17T06:49:34.639Z,99.90
2023-01-17T06:52:01.420Z,99.90
2023-01-17T06:54:28.142Z,99.90
2023-01-17T06:56:54.827Z,99.90
2023-01-17T06:59:21.578Z,99.90
2023-01-17T07:01:48.298Z,99.90
2023-01-17T07:04:15.268Z,99.90
2023-01-17T07:06:41.963Z,99.90
2023-01-17T07:09:08.805Z,99.90
2023-01-17T07:11:35.503Z,99.90
2023-01-17T07:14:02.306Z,99.90
2023-01-17T07:16:29.020Z,99.90
2023-01-17T07:18:57.027Z,99.90
2023-01-17T07:21:23.793Z,99.90
2023-01-17T07:23:50.482Z,99.90
2023-01-17T07:26:17.425Z,99.90
2023-01-17T07:28:44.290Z,99.90
2023-01-17T07:31:11.154Z,99.90
2023-01-17T07:33:38.016Z,99.90
2023-01-17T07:36:09.350Z,99.90
2023-01-17T07:38:36.361Z,99.90
2023-01-17T07:41:03.195Z,99.90
2023-01-17T07:43:30.232Z,99.90
2023-01-17T07:45:57.548Z,99.90
2023-01-17T07:48:25.094Z,99.90
2023-01-17T07:50:56.819Z,99.90
2023-01-17T07:53:25.161Z,99.90
2023-01-17T07:55:52.754Z,99.90
2023-01-17T07:58:20.284Z,99.90
2023-01-17T08:00:47.358Z,99.90
2023-01-17T08:03:17.538Z,99.90
2023-01-17T08:05:53.073Z,99.90
2023-01-17T08:08:20.034Z,99.90
2023-01-17T08:10:47.139Z,99.90
2023-01-17T08:13:13.850Z,99.90
2023-01-17T08:15:40.612Z,99.90
2023-01-17T08:18:07.339Z,99.90
2023-01-17T08:20:34.052Z,99.90
2023-01-17T08:23:00.754Z,99.90
2023-01-17T08:25:27.683Z,99.90
2023-01-17T08:27:58.305Z,99.90
2023-01-17T08:30:26.214Z,99.90
2023-01-17T08:32:53.435Z,99.90
2023-01-17T08:35:21.156Z,99.90
2023-01-17T08:37:48.729Z,99.90
2023-01-17T08:40:17.402Z,99.90
2023-01-17T08:42:44.270Z,99.90
2023-01-17T08:45:12.359Z,99.90
2023-01-17T08:47:39.130Z,99.90
2023-01-17T08:50:06.913Z,99.90
2023-01-17T08:52:33.918Z,99.90
2023-01-17T08:55:00.705Z,99.90
2023-01-17T08:57:27.824Z,99.90
2023-01-17T08:59:54.595Z,99.90
2023-01-17T09:02:21.393Z,99.90
2023-01-17T09:04:49.426Z,96.30
2023-01-17T09:07:20.691Z,96.20
2023-01-17T09:09:48.336Z,93.00
2023-01-17T09:12:15.073Z,88.80
2023-01-17T09:14:41.863Z,83.60
2023-01-17T09:17:08.534Z,83.70
2023-01-17T09:19:35.567Z,82.10
2023-01-17T09:22:04.587Z,79.40
2023-01-17T09:24:32.768Z,72.20
2023-01-17T09:27:00.186Z,69.50
2023-01-17T09:29:27.023Z,67.70
2023-01-17T09:31:54.018Z,67.10
2023-01-17T09:34:21.308Z,64.70
2023-01-17T09:36:48.038Z,64.30
2023-01-17T09:39:15.334Z,61.10
2023-01-17T09:41:45.029Z,60.00
2023-01-17T09:44:25.205Z,59.10
2023-01-17T09:46:55.666Z,58.30
2023-01-17T09:49:41.824Z,56.90
2023-01-17T09:52:12.535Z,56.10
2023-01-17T09:54:42.027Z,55.20
2023-01-17T09:57:40.995Z,55.60
2023-01-17T10:00:35.953Z,54.40
2023-01-17T10:03:27.441Z,55.50
2023-01-17T10:05:54.233Z,54.50
2023-01-17T10:08:48.677Z,53.10
2023-01-17T10:11:44.056Z,52.90
2023-01-17T10:14:41.474Z,53.00
2023-01-17T10:17:36.386Z,52.20
2023-01-17T10:20:11.997Z,51.90
2023-01-17T10:23:03.994Z,52.70
2023-01-17T10:25:42.611Z,52.10
2023-01-17T10:28:22.186Z,52.90
2023-01-17T10:30:52.396Z,50.30
2023-01-17T10:33:27.398Z,51.30
2023-01-17T10:36:02.347Z,51.80
2023-01-17T10:38:38.271Z,52.90
2023-01-17T10:41:15.672Z,51.70
2023-01-17T10:43:56.213Z,53.50
2023-01-17T10:48:56.540Z,55.70
2023-01-17T10:52:02.612Z,60.70
2023-01-17T10:54:54.289Z,62.70
2023-01-17T10:57:27.165Z,63.10
2023-01-17T10:59:59.791Z,66.50
2023-01-17T11:02:35.157Z,69.20
2023-01-17T11:05:11.502Z,73.90
2023-01-17T11:07:39.987Z,76.20
2023-01-17T11:10:07.121Z,80.30
2023-01-17T11:12:43.971Z,80.10
2023-01-17T11:15:10.665Z,81.80
2023-01-17T11:17:45.921Z,83.00
2023-01-17T11:20:12.564Z,85.10
2023-01-17T11:22:39.521Z,83.20
2023-01-17T11:25:07.176Z,81.40
2023-01-17T11:27:37.694Z,79.50
2023-01-17T11:30:15.822Z,75.10
2023-01-17T11:33:00.251Z,71.00
2023-01-17T11:35:44.141Z,70.20
2023-01-17T11:38:17.659Z,66.30
2023-01-17T11:40:48.718Z,60.80
2023-01-17T11:43:23.124Z,60.30
2023-01-17T11:46:13.215Z,60.00
2023-01-17T11:48:40.015Z,60.90
2023-01-17T11:51:30.176Z,61.30
2023-01-17T11:54:25.745Z,61.20
2023-01-17T11:57:00.836Z,61.00
2023-01-17T11:59:33.479Z,60.70
2023-01-17T12:02:03.228Z,60.70
2023-01-17T12:04:51.413Z,59.80
2023-01-17T12:07:41.738Z,61.10
2023-01-17T12:10:12.149Z,59.00
2023-01-17T12:13:18.997Z,59.60
2023-01-17T12:16:29.053Z,59.80
2023-01-17T12:19:17.191Z,63.10
2023-01-17T12:22:14.662Z,61.50
2023-01-17T12:25:18.824Z,61.30
2023-01-17T12:27:57.485Z,62.40
2023-01-17T12:31:14.991Z,61.80
2023-01-17T12:34:11.117Z,63.80
2023-01-17T12:36:48.470Z,63.70
2023-01-17T12:39:18.938Z,65.00
2023-01-17T12:42:03.253Z,65.20
2023-01-17T12:44:52.815Z,66.40
2023-01-17T12:47:21.594Z,68.70
2023-01-17T12:49:53.541Z,70.90
2023-01-17T12:52:46.397Z,72.30
2023-01-17T12:55:35.155Z,73.80
2023-01-17T12:58:05.828Z,75.40
2023-01-17T13:00:37.006Z,78.10
2023-01-17T13:03:27.514Z,78.70
2023-01-17T13:05:57.485Z,79.90
2023-01-17T13:08:36.588Z,79.70
2023-01-17T13:11:28.393Z,79.90
2023-01-17T13:13:57.977Z,80.70
2023-01-17T13:16:36.935Z,79.60
2023-01-17T13:19:14.553Z,77.90
2023-01-17T13:21:41.651Z,78.60
2023-01-17T13:24:27.122Z,78.00
2023-01-17T13:26:59.615Z,78.20
2023-01-17T13:30:04.630Z,76.50
2023-01-17T13:33:01.629Z,75.50
2023-01-17T13:36:08.719Z,73.80
2023-01-17T13:39:05.829Z,73.90
2023-01-17T13:41:35.685Z,75.10
2023-01-17T13:44:21.491Z,75.00
2023-01-17T13:46:58.708Z,73.10
2023-01-17T13:49:28.274Z,73.60
2023-01-17T13:52:18.751Z,74.60
2023-01-17T13:54:50.970Z,74.20
2023-01-17T13:57:29.348Z,75.60
2023-01-17T13:59:57.945Z,75.30
2023-01-17T14:02:35.845Z,75.20
2023-01-17T14:05:23.388Z,75.90
2023-01-17T14:08:12.904Z,78.60
2023-01-17T14:10:45.240Z,80.30
2023-01-17T14:13:28.729Z,81.10
2023-01-17T14:15:55.538Z,82.30
2023-01-17T14:18:40.807Z,84.00
2023-01-17T14:21:21.300Z,83.90
2023-01-17T14:23:57.007Z,84.20
2023-01-17T14:26:33.304Z,85.60
2023-01-17T14:29:38.703Z,87.30
2023-01-17T14:32:09.880Z,90.20
2023-01-17T14:34:37.353Z,90.50
2023-01-17T14:37:12.486Z,91.30
2023-01-17T14:39:50.698Z,92.60
2023-01-17T14:42:21.413Z,93.10
2023-01-17T14:45:00.787Z,93.20
2023-01-17T14:47:32.006Z,93.80
2023-01-17T14:50:17.472Z,93.50
2023-01-17T14:52:47.049Z,94.30
2023-01-17T14:55:19.556Z,94.70
2023-01-17T14:57:56.669Z,94.10
2023-01-17T15:00:29.444Z,95.90
2023-01-17T15:02:59.462Z,96.30
2023-01-17T15:05:28.846Z,97.50
2023-01-17T15:07:57.949Z,99.90
2023-01-17T15:10:31.496Z,99.90
2023-01-17T15:13:07.475Z,99.90
2023-01-17T15:15:39.829Z,99.90
2023-01-17T15:18:24.909Z,99.90
2023-01-17T15:20:54.641Z,99.90
2023-01-17T15:23:23.315Z,99.90
2023-01-17T15:25:52.807Z,99.90
2023-01-17T15:28:19.653Z,99.90
2023-01-17T15:31:18.800Z,99.90
2023-01-17T15:33:58.025Z,99.90
2023-01-17T15:36:30.177Z,99.90
2023-01-17T15:39:17.805Z,99.90
2023-01-17T15:41:44.540Z,99.90
2023-01-17T15:44:48.692Z,99.90
2023-01-17T15:47:31.243Z,99.90
2023-01-17T15:49:59.672Z,99.90
2023-01-17T15:52:27.210Z,99.90
2023-01-17T15:55:18.115Z,99.90
2023-01-17T15:57:47.747Z,99.90
2023-01-17T16:00:19.230Z,99.90
2023-01-17T16:02:47.526Z,99.90
2023-01-17T16:05:23.943Z,99.90
2023-01-17T16:07:55.239Z,99.90
2023-01-17T16:10:31.576Z,99.90
2023-01-17T16:12:59.273Z,99.90
2023-01-17T16:15:27.400Z,99.90
2023-01-17T16:18:02.411Z,99.90
2023-01-17T16:20:38.422Z,99.90
2023-01-17T16:23:05.443Z,99.90
2023-01-17T16:25:32.942Z,99.90
2023-01-17T16:28:00.595Z,99.90
2023-01-17T16:30:28.980Z,99.90
2023-01-17T16:32:56.920Z,99.90
2023-01-17T16:35:30.038Z,99.90
2023-01-17T16:38:06.198Z,99.90
2023-01-17T16:40:40.253Z,99.90
2023-01-17T16:43:06.970Z,99.90
2023-01-17T16:45:42.123Z,99.90
2023-01-17T16:48:09.550Z,99.90
2023-01-17T16:50:41.335Z,99.90
2023-01-17T16:53:08.286Z,99.90
2023-01-17T16:55:38.175Z,99.90
2023-01-17T16:58:04.982Z,99.90
2023-01-17T17:00:31.709Z,99.90
2023-01-17T17:02:58.449Z,99.90
2023-01-17T17:05:26.597Z,99.90
2023-01-17T17:07:53.961Z,99.90
2023-01-17T17:10:25.078Z,99.90
2023-01-17T17:12:52.098Z,99.90
2023-01-17T17:15:19.026Z,99.90
2023-01-17T17:17:48.035Z,99.90
2023-01-17T17:20:15.867Z,99.90
2023-01-17T17:22:48.806Z,99.90
2023-01-17T17:25:15.999Z,99.90
2023-01-17T17:27:42.978Z,99.90
2023-01-17T17:30:10.684Z,99.90
2023-01-17T17:32:37.478Z,99.90
2023-01-17T17:35:04.821Z,99.90
2023-01-17T17:37:31.634Z,99.90
2023-01-17T17:39:58.381Z,99.90
2023-01-17T17:42:25.672Z,99.90
2023-01-17T17:44:52.644Z,99.90
2023-01-17T17:47:19.439Z,99.90
2023-01-17T17:49:46.225Z,99.90
2023-01-17T17:52:13.288Z,99.90
2023-01-17T17:54:40.050Z,99.90
2023-01-17T17:57:07.537Z,99.90
2023-01-17T17:59:34.481Z,99.90
2023-01-17T18:02:01.281Z,99.90
2023-01-17T18:04:28.320Z,99.90
2023-01-17T18:06:58.605Z,99.90
2023-01-17T18:09:25.321Z,99.90
2023-01-17T18:11:52.118Z,99.90
2023-01-17T18:14:23.864Z,99.90
2023-01-17T18:16:51.283Z,99.90
2023-01-17T18:19:21.725Z,99.90
2023-01-17T18:21:50.444Z,99.90
2023-01-17T18:24:19.984Z,99.90
2023-01-17T18:26:50.031Z,99.90
2023-01-17T18:29:18.758Z,99.90
2023-01-17T18:31:47.376Z,99.90
2023-01-17T18:34:16.674Z,99.90
2023-01-17T18:36:44.064Z,99.90
2023-01-17T18:39:17.173Z,99.90
2023-01-17T18:41:44.643Z,99.90
2023-01-17T18:44:11.756Z,99.90
2023-01-17T18:46:40.176Z,99.90
2023-01-17T18:49:06.946Z,99.90
2023-01-17T18:51:34.726Z,99.90
2023-01-17T18:54:05.390Z,99.90
2023-01-17T18:56:34.241Z,99.90
2023-01-17T18:59:02.243Z,99.90
2023-01-17T19:01:35.157Z,99.90
2023-01-17T19:04:04.012Z,99.90
2023-01-17T19:06:39.628Z,99.90
2023-01-17T19:09:08.247Z,99.90
2023-01-17T19:11:36.326Z,99.90
2023-01-17T19:14:03.304Z,99.90
2023-01-17T19:16:32.559Z,99.90
2023-01-17T19:19:04.716Z,99.90
2023-01-17T19:21:31.937Z,99.90
2023-01-17T19:23:59.590Z,99.90
2023-01-17T19:26:27.587Z,99.90
2023-01-17T19:28:56.696Z,99.90
2023-01-17T19:31:26.235Z,99.90
2023-01-17T19:33:57.299Z,99.90
2023-01-17T19:36:29.481Z,99.90
2023-01-17T19:39:04.365Z,99.90
2023-01-17T19:41:32.281Z,99.90
2023-01-17T19:44:07.014Z,99.90
2023-01-17T19:46:34.579Z,99.90
2023-01-17T19:49:02.146Z,99.90
2023-01-17T19:51:29.229Z,99.90
2023-01-17T19:53:58.899Z,99.90
2023-01-17T19:56:26.684Z,99.90
2023-01-17T19:58:53.707Z,99.90
2023-01-17T20:01:28.379Z,99.90
2023-01-17T20:03:57.750Z,99.90
2023-01-17T20:06:27.157Z,99.90
2023-01-17T20:08:54.253Z,99.90
2023-01-17T20:11:23.473Z,99.90
2023-01-17T20:13:54.167Z,99.90
2023-01-17T20:16:21.845Z,99.90
2023-01-17T20:18:50.427Z,99.90
2023-01-17T20:21:25.279Z,99.90
2023-01-17T20:23:52.985Z,99.90
2023-01-17T20:26:23.354Z,99.90
2023-01-17T20:28:51.504Z,99.90
2023-01-17T20:31:23.791Z,99.90
2023-01-17T20:33:53.343Z,99.90
2023-01-17T20:36:22.355Z,99.90
2023-01-17T20:38:49.669Z,99.90
2023-01-17T20:41:19.251Z,99.90
2023-01-17T20:43:48.360Z,99.90
2023-01-17T20:46:16.153Z,99.90
2023-01-17T20:48:54.085Z,99.90
2023-01-17T20:51:22.844Z,99.90
2023-01-17T20:53:55.956Z,99.90
2023-01-17T20:56:23.366Z,99.90
2023-01-17T20:58:52.048Z,99.90
2023-01-17T21:01:20.009Z,99.90
2023-01-17T21:03:51.184Z,99.90
2023-01-17T21:06:19.359Z,99.90
2023-01-17T21:08:47.027Z,99.90
2023-01-17T21:11:16.505Z,99.90
2023-01-17T21:13:43.881Z,99.90
2023-01-17T21:16:15.453Z,99.90
2023-01-17T21:18:43.039Z,99.90
2023-01-17T21:21:13.941Z,99.90
2023-01-17T21:23:42.323Z,99.90
2023-01-17T21:26:14.172Z,99.90
2023-01-17T21:28:43.590Z,99.90
2023-01-17T21:31:23.116Z,99.90
2023-01-17T21:33:56.240Z,99.90
2023-01-17T21:36:32.979Z,99.90
2023-01-17T21:39:04.777Z,99.90
2023-01-17T21:41:34.581Z,99.90
2023-01-17T21:44:04.774Z,99.90
2023-01-17T21:46:31.827Z,99.90
2023-01-17T21:48:58.645Z,99.90
2023-01-17T21:51:45.639Z,99.90
2023-01-17T21:54:12.510Z,99.90
2023-01-17T21:56:59.498Z,99.90
2023-01-17T21:59:26.317Z,99.90
2023-01-17T22:01:53.152Z,99.90
2023-01-17T22:04:20.116Z,99.90
2023-01-17T22:06:46.849Z,99.90
2023-01-17T22:09:15.097Z,99.90
2023-01-17T22:11:41.914Z,99.90
2023-01-17T22:14:08.607Z,99.90
2023-01-17T22:16:35.350Z,99.90
2023-01-17T22:19:02.049Z,99.90
2023-01-17T22:21:28.997Z,99.90
2023-01-17T22:23:59.048Z,99.90
2023-01-17T22:26:28.234Z,99.90
2023-01-17T22:28:55.683Z,99.90
2023-01-17T22:31:25.077Z,99.90
2023-01-17T22:33:54.899Z,99.90
2023-01-17T22:36:22.444Z,99.90
2023-01-17T22:38:49.252Z,99.90
2023-01-17T22:41:19.964Z,99.90
2023-01-17T22:43:52.424Z,99.90
2023-01-17T22:46:21.674Z,99.90
2023-01-17T22:48:49.372Z,99.90
2023-01-17T22:51:18.597Z,99.90
2023-01-17T22:53:47.908Z,99.90
2023-01-17T22:56:17.690Z,99.90
2023-01-17T22:58:48.833Z,99.90
2023-01-17T23:01:17.399Z,99.90
2023-01-17T23:03:45.440Z,99.90
2023-01-17T23:06:15.944Z,99.90
2023-01-17T23:08:44.995Z,99.90
2023-01-17T23:11:43.394Z,99.90
2023-01-17T23:14:29.511Z,99.90
2023-01-17T23:17:15.010Z,99.90
2023-01-17T23:19:48.152Z,99.90
2023-01-17T23:22:19.301Z,99.90
2023-01-17T23:24:50.263Z,99.90
2023-01-17T23:27:43.132Z,99.90
2023-01-17T23:30:28.012Z,99.90
2023-01-17T23:33:00.916Z,99.90
2023-01-17T23:35:30.088Z,99.90
2023-01-17T23:38:16.036Z,99.90
2023-01-17T23:40:43.780Z,99.90
2023-01-17T23:43:22.846Z,99.90
2023-01-17T23:45:54.318Z,99.90
2023-01-17T23:48:23.589Z,99.90
2023-01-17T23:50:50.816Z,99.90
2023-01-17T23:53:22.664Z,99.90
2023-01-17T23:55:54.949Z,99.90
2023-01-17T23:58:24.427Z,99.90
